Time,TemperatureF,DewpointF,PressureIn,WindDirection,WindDirectionDegrees,WindSpeedMPH,WindSpeedGustMPH,Humidity,HourlyPrecipIn,Conditions,Clouds,dailyrainin,SolarRadiationWatts/m^2,SoftwareType,DateUTC
2013-02-23 00:00:00,34.0,23.0,-100.00,WNW,296,5.0,11.0,65,0.00,,,0.00,0.000000,,2013-02-23 08:00:00,
2013-02-23 00:32:00,34.0,23.0,-100.00,WNW,296,5.0,11.0,65,0.00,,,0.00,0.000000,,2013-02-23 08:32:00,
2013-02-23 00:42:00,34.0,23.0,-100.00,WNW,296,5.0,11.0,65,0.00,,,0.00,0.000000,,2013-02-23 08:42:00,
2013-02-23 00:52:00,34.0,23.0,-100.00,WNW,296,5.0,11.0,65,0.00,,,0.00,0.000000,,2013-02-23 08:52:00,
2013-02-23 01:00:00,35.0,24.0,-100.00,NW,308,3.0,9.0,65,0.00,,,0.00,0.000000,,2013-02-23 09:00:00,
2013-02-23 01:32:00,35.0,24.0,-100.00,NW,308,3.0,9.0,65,0.00,,,0.00,0.000000,,2013-02-23 09:32:00,
2013-02-23 01:42:00,35.0,24.0,-100.00,NW,308,3.0,9.0,65,0.00,,,0.00,0.000000,,2013-02-23 09:42:00,
2013-02-23 01:52:00,35.0,24.0,-100.00,NW,308,3.0,9.0,65,0.00,,,0.00,0.000000,,2013-02-23 09:52:00,
2013-02-23 02:00:00,32.0,22.0,-100.00,NW,311,2.0,10.0,67,0.00,,,0.00,0.000000,,2013-02-23 10:00:00,
2013-02-23 02:32:00,32.0,22.0,-100.00,NW,311,2.0,10.0,67,0.00,,,0.00,0.000000,,2013-02-23 10:32:00,
2013-02-23 02:42:00,32.0,22.0,-100.00,NW,311,2.0,10.0,67,0.00,,,0.00,0.000000,,2013-02-23 10:42:00,
2013-02-23 02:52:00,32.0,22.0,-100.00,NW,311,2.0,10.0,67,0.00,,,0.00,0.000000,,2013-02-23 10:52:00,
2013-02-23 03:00:00,32.0,25.0,-100.00,WNW,297,0.0,7.0,75,0.00,,,0.00,0.000000,,2013-02-23 11:00:00,
2013-02-23 03:32:00,32.0,25.0,-100.00,WNW,297,0.0,7.0,75,0.00,,,0.00,0.000000,,2013-02-23 11:32:00,
2013-02-23 03:42:00,32.0,25.0,-100.00,WNW,297,0.0,7.0,75,0.00,,,0.00,0.000000,,2013-02-23 11:42:00,
2013-02-23 03:52:00,32.0,25.0,-100.00,WNW,297,0.0,7.0,75,0.00,,,0.00,0.000000,,2013-02-23 11:52:00,
2013-02-23 04:00:00,34.0,28.0,-100.00,WNW,302,3.0,5.0,77,0.00,,,0.00,0.000000,,2013-02-23 12:00:00,
2013-02-23 04:32:00,34.0,28.0,-100.00,WNW,302,3.0,5.0,77,0.00,,,0.00,0.000000,,2013-02-23 12:32:00,
2013-02-23 04:42:00,34.0,28.0,-100.00,WNW,302,3.0,5.0,77,0.00,,,0.00,0.000000,,2013-02-23 12:42:00,
2013-02-23 04:52:00,34.0,28.0,-100.00,WNW,302,3.0,5.0,77,0.00,,,0.00,0.000000,,2013-02-23 12:52:00,
2013-02-23 05:00:00,33.0,27.0,-100.00,WNW,297,0.0,6.0,79,0.00,,,0.00,0.000000,,2013-02-23 13:00:00,
2013-02-23 05:22:00,33.0,27.0,-100.00,WNW,297,0.0,6.0,79,0.00,,,0.00,0.000000,,2013-02-23 13:22:00,
2013-02-23 05:32:00,33.0,27.0,-100.00,WNW,297,0.0,6.0,79,0.00,,,0.00,0.000000,,2013-02-23 13:32:00,
2013-02-23 05:42:00,33.0,27.0,-100.00,WNW,297,0.0,6.0,79,0.00,,,0.00,0.000000,,2013-02-23 13:42:00,
2013-02-23 05:52:00,33.0,27.0,-100.00,WNW,297,0.0,6.0,79,0.00,,,0.00,0.000000,,2013-02-23 13:52:00,
2013-02-23 06:00:00,39.0,25.0,-100.00,West,276,12.0,23.0,56,0.00,,,0.00,0.000000,,2013-02-23 14:00:00,
2013-02-23 06:33:00,39.0,25.0,-100.00,West,276,12.0,23.0,56,0.00,,,0.00,0.000000,,2013-02-23 14:33:00,
2013-02-23 06:42:00,39.0,25.0,-100.00,West,276,12.0,23.0,56,0.00,,,0.00,0.000000,,2013-02-23 14:42:00,
2013-02-23 06:52:00,39.0,25.0,-100.00,West,276,12.0,23.0,56,0.00,,,0.00,0.000000,,2013-02-23 14:52:00,
2013-02-23 07:00:00,38.0,26.0,-100.00,NNW,335,0.0,22.0,61,0.00,,,0.00,0.000000,,2013-02-23 15:00:00,
2013-02-23 07:22:00,38.0,26.0,-100.00,NNW,335,0.0,22.0,61,0.00,,,0.00,0.000000,,2013-02-23 15:22:00,
2013-02-23 07:32:00,38.0,26.0,-100.00,NNW,335,0.0,22.0,61,0.00,,,0.00,0.000000,,2013-02-23 15:32:00,
2013-02-23 07:42:00,38.0,26.0,-100.00,NNW,335,0.0,22.0,61,0.00,,,0.00,0.000000,,2013-02-23 15:42:00,
2013-02-23 07:52:00,38.0,26.0,-100.00,NNW,335,0.0,22.0,61,0.00,,,0.00,0.000000,,2013-02-23 15:52:00,
2013-02-23 08:00:00,34.0,25.0,-100.00,NNW,342,0.0,8.0,69,0.00,,,0.00,3.000000,,2013-02-23 16:00:00,
2013-02-23 08:22:00,34.0,25.0,-100.00,NNW,342,0.0,8.0,69,0.00,,,0.00,3.000000,,2013-02-23 16:22:00,
2013-02-23 08:32:00,34.0,25.0,-100.00,NNW,342,0.0,8.0,69,0.00,,,0.00,3.000000,,2013-02-23 16:32:00,
2013-02-23 08:42:00,34.0,25.0,-100.00,NNW,342,0.0,8.0,69,0.00,,,0.00,3.000000,,2013-02-23 16:42:00,
2013-02-23 08:52:00,34.0,25.0,-100.00,NNW,342,0.0,8.0,69,0.00,,,0.00,3.000000,,2013-02-23 16:52:00,
2013-02-23 09:00:00,44.0,26.0,-100.00,NW,316,8.0,14.0,48,-99.99,,,0.00,144.000000,,2013-02-23 17:00:00,
2013-02-23 09:32:00,44.0,26.0,-100.00,NW,316,8.0,14.0,48,-99.99,,,0.00,144.000000,,2013-02-23 17:32:00,
2013-02-23 09:42:00,44.0,26.0,-100.00,NW,316,8.0,14.0,48,-99.99,,,0.00,144.000000,,2013-02-23 17:42:00,
2013-02-23 09:52:00,44.0,26.0,-100.00,NW,316,8.0,14.0,48,-99.99,,,0.00,144.000000,,2013-02-23 17:52:00,
2013-02-23 10:00:00,49.0,27.0,-100.00,SSE,162,7.0,24.0,42,0.00,,,0.00,472.000000,,2013-02-23 18:00:00,
2013-02-23 10:32:00,49.0,27.0,-100.00,SSE,162,7.0,24.0,42,0.00,,,0.00,472.000000,,2013-02-23 18:32:00,
2013-02-23 10:42:00,49.0,27.0,-100.00,SSE,162,7.0,24.0,42,0.00,,,0.00,472.000000,,2013-02-23 18:42:00,
2013-02-23 10:52:00,49.0,27.0,-100.00,SSE,162,7.0,24.0,42,0.00,,,0.00,472.000000,,2013-02-23 18:52:00,
2013-02-23 11:00:00,51.0,30.0,-100.00,West,268,13.0,28.0,44,0.00,,,0.00,710.000000,,2013-02-23 19:00:00,
2013-02-23 11:32:00,51.0,30.0,-100.00,West,268,13.0,28.0,44,0.00,,,0.00,710.000000,,2013-02-23 19:32:00,
2013-02-23 11:42:00,51.0,30.0,-100.00,West,268,13.0,28.0,44,0.00,,,0.00,710.000000,,2013-02-23 19:42:00,
2013-02-23 11:52:00,51.0,30.0,-100.00,West,268,13.0,28.0,44,0.00,,,0.00,710.000000,,2013-02-23 19:52:00,
2013-02-23 12:00:00,49.0,29.0,-100.00,WSW,246,10.0,31.0,46,0.00,,,0.00,959.000000,,2013-02-23 20:00:00,
2013-02-23 12:22:00,49.0,29.0,-100.00,WSW,246,10.0,31.0,46,0.00,,,0.00,959.000000,,2013-02-23 20:22:00,
2013-02-23 12:32:00,49.0,29.0,-100.00,WSW,246,10.0,31.0,46,0.00,,,0.00,959.000000,,2013-02-23 20:32:00,
2013-02-23 12:42:00,49.0,29.0,-100.00,WSW,246,10.0,31.0,46,0.00,,,0.00,959.000000,,2013-02-23 20:42:00,
2013-02-23 12:52:00,49.0,29.0,-100.00,WSW,246,10.0,31.0,46,0.00,,,0.00,959.000000,,2013-02-23 20:52:00,
2013-02-23 13:00:00,53.0,31.0,-100.00,WSW,244,10.0,23.0,42,0.00,,,0.00,1006.000000,,2013-02-23 21:00:00,
2013-02-23 13:32:00,53.0,31.0,-100.00,WSW,244,10.0,23.0,42,0.00,,,0.00,1006.000000,,2013-02-23 21:32:00,
2013-02-23 13:42:00,53.0,31.0,-100.00,WSW,244,10.0,23.0,42,0.00,,,0.00,1006.000000,,2013-02-23 21:42:00,
2013-02-23 13:52:00,53.0,31.0,-100.00,WSW,244,10.0,23.0,42,0.00,,,0.00,1006.000000,,2013-02-23 21:52:00,
2013-02-23 14:00:00,48.0,27.0,-100.00,West,259,13.0,29.0,44,0.00,,,0.00,1064.000000,,2013-02-23 22:00:00,
2013-02-23 14:22:00,48.0,27.0,-100.00,West,259,13.0,29.0,44,0.00,,,0.00,1064.000000,,2013-02-23 22:22:00,
2013-02-23 14:32:00,48.0,27.0,-100.00,West,259,13.0,29.0,44,0.00,,,0.00,1064.000000,,2013-02-23 22:32:00,
2013-02-23 14:42:00,48.0,27.0,-100.00,West,259,13.0,29.0,44,0.00,,,0.00,1064.000000,,2013-02-23 22:42:00,
2013-02-23 14:52:00,48.0,27.0,-100.00,West,259,13.0,29.0,44,0.00,,,0.00,1064.000000,,2013-02-23 22:52:00,
2013-02-23 15:00:00,49.0,27.0,-100.00,WSW,247,12.0,39.0,42,0.00,,,0.00,969.000000,,2013-02-23 23:00:00,
2013-02-23 15:32:00,49.0,27.0,-100.00,WSW,247,12.0,39.0,42,0.00,,,0.00,969.000000,,2013-02-23 23:32:00,
2013-02-23 15:42:00,49.0,27.0,-100.00,WSW,247,12.0,39.0,42,0.00,,,0.00,969.000000,,2013-02-23 23:42:00,
2013-02-23 15:52:00,49.0,27.0,-100.00,WSW,247,12.0,39.0,42,0.00,,,0.00,969.000000,,2013-02-23 23:52:00,
2013-02-23 16:00:00,49.0,29.0,-100.00,WSW,250,5.0,30.0,46,0.00,,,0.00,607.000000,,2013-02-24 00:00:00,
2013-02-23 16:22:00,49.0,29.0,-100.00,WSW,250,5.0,30.0,46,0.00,,,0.00,607.000000,,2013-02-24 00:22:00,
2013-02-23 16:32:00,49.0,29.0,-100.00,WSW,250,5.0,30.0,46,0.00,,,0.00,607.000000,,2013-02-24 00:32:00,
2013-02-23 16:42:00,49.0,29.0,-100.00,WSW,250,5.0,30.0,46,0.00,,,0.00,607.000000,,2013-02-24 00:42:00,
2013-02-23 16:52:00,49.0,29.0,-100.00,WSW,250,5.0,30.0,46,0.00,,,0.00,607.000000,,2013-02-24 00:52:00,
2013-02-23 17:00:00,44.0,28.0,-100.00,WSW,237,2.0,18.0,52,0.00,,,0.00,159.000000,,2013-02-24 01:00:00,
2013-02-23 17:32:00,44.0,28.0,-100.00,WSW,237,2.0,18.0,52,0.00,,,0.00,159.000000,,2013-02-24 01:32:00,
2013-02-23 17:42:00,44.0,28.0,-100.00,WSW,237,2.0,18.0,52,0.00,,,0.00,159.000000,,2013-02-24 01:42:00,
2013-02-23 17:52:00,44.0,28.0,-100.00,WSW,237,2.0,18.0,52,0.00,,,0.00,159.000000,,2013-02-24 01:52:00,
2013-02-23 18:00:00,41.0,23.0,-100.00,West,270,1.0,17.0,48,0.00,,,0.00,48.000000,,2013-02-24 02:00:00,
2013-02-23 18:32:00,41.0,23.0,-100.00,West,270,1.0,17.0,48,0.00,,,0.00,48.000000,,2013-02-24 02:32:00,
2013-02-23 18:42:00,41.0,23.0,-100.00,West,270,1.0,17.0,48,0.00,,,0.00,48.000000,,2013-02-24 02:42:00,
2013-02-23 18:52:00,41.0,23.0,-100.00,West,270,1.0,17.0,48,0.00,,,0.00,48.000000,,2013-02-24 02:52:00,
2013-02-23 19:00:00,41.0,23.0,-100.00,WNW,299,6.0,10.0,49,0.00,,,0.00,5.000000,,2013-02-24 03:00:00,
2013-02-23 19:32:00,41.0,23.0,-100.00,WNW,299,6.0,10.0,49,0.00,,,0.00,5.000000,,2013-02-24 03:32:00,
2013-02-23 19:42:00,41.0,23.0,-100.00,WNW,299,6.0,10.0,49,0.00,,,0.00,5.000000,,2013-02-24 03:42:00,
2013-02-23 19:52:00,41.0,23.0,-100.00,WNW,299,6.0,10.0,49,0.00,,,0.00,5.000000,,2013-02-24 03:52:00,
2013-02-23 20:00:00,41.0,29.0,-100.00,West,270,8.0,12.0,62,0.00,,,0.00,0.000000,,2013-02-24 04:00:00,
2013-02-23 20:32:00,41.0,29.0,-100.00,West,270,8.0,12.0,62,0.00,,,0.00,0.000000,,2013-02-24 04:32:00,
2013-02-23 20:42:00,41.0,29.0,-100.00,West,270,8.0,12.0,62,0.00,,,0.00,0.000000,,2013-02-24 04:42:00,
2013-02-23 20:52:00,41.0,29.0,-100.00,West,270,8.0,12.0,62,0.00,,,0.00,0.000000,,2013-02-24 04:52:00,
2013-02-23 21:00:00,40.0,33.0,-100.00,West,263,8.0,18.0,76,0.00,,,0.00,0.000000,,2013-02-24 05:00:00,
2013-02-23 21:22:00,40.0,33.0,-100.00,West,263,8.0,18.0,76,0.00,,,0.00,0.000000,,2013-02-24 05:22:00,
2013-02-23 21:32:00,40.0,33.0,-100.00,West,263,8.0,18.0,76,0.00,,,0.00,0.000000,,2013-02-24 05:32:00,
2013-02-23 21:42:00,40.0,33.0,-100.00,West,263,8.0,18.0,76,0.00,,,0.00,0.000000,,2013-02-24 05:42:00,
2013-02-23 21:52:00,40.0,33.0,-100.00,West,263,8.0,18.0,76,0.00,,,0.00,0.000000,,2013-02-24 05:52:00,
2013-02-23 22:00:00,39.0,32.0,-100.00,West,278,8.0,17.0,77,0.00,,,0.00,0.000000,,2013-02-24 06:00:00,
2013-02-23 22:21:00,39.0,32.0,-100.00,West,278,8.0,17.0,77,0.00,,,0.00,0.000000,,2013-02-24 06:21:00,
2013-02-23 22:32:00,39.0,32.0,-100.00,West,278,8.0,17.0,77,0.00,,,0.00,0.000000,,2013-02-24 06:32:00,
2013-02-23 22:42:00,39.0,32.0,-100.00,West,278,8.0,17.0,77,0.00,,,0.00,0.000000,,2013-02-24 06:42:00,
2013-02-23 22:52:00,39.0,32.0,-100.00,West,278,8.0,17.0,77,0.00,,,0.00,0.000000,,2013-02-24 06:52:00,
2013-02-23 23:00:00,39.0,31.0,-100.00,WNW,285,10.0,17.0,73,0.00,,,0.00,0.000000,,2013-02-24 07:00:00,
2013-02-23 23:32:00,39.0,31.0,-100.00,WNW,285,10.0,17.0,73,0.00,,,0.00,0.000000,,2013-02-24 07:32:00,
2013-02-23 23:42:00,39.0,31.0,-100.00,WNW,285,10.0,17.0,73,0.00,,,0.00,0.000000,,2013-02-24 07:42:00,
2013-02-23 23:52:00,39.0,31.0,-100.00,WNW,285,10.0,17.0,73,0.00,,,0.00,0.000000,,2013-02-24 07:52:00,